Terminal Aerodrome Forecast
Issued by NWS

Home | Current Version | Previous Version | Text Only | Print | Product List | Glossary On
Versions: 1 2 3 4 5 6 7 8 9 10 11 12 13 14 15 16 17 18 19 20 21 22 23 24
000
FTUS45 KBOU 210218 AAB
TAFBJC
TAF AMD
KBJC 210218Z 2102/2124 28007KT P6SM VCSH SCT050 BKN080
     FM210330 28007KT P6SM SCT120
     FM210600 34009KT P6SM FEW060 SCT080
     FM211200 36007KT P6SM SCT030 BKN040
     FM211600 06006KT P6SM FEW050 SCT090
     FM212000 14007KT P6SM SCT090 SCT150=

USA.gov is the U.S. government's official web portal to all federal, state and local government web resources and services.